Aviation Digital Data Service (ADDS)

Output produced by METARs form (2355 UTC 03 May 2015)
found at http://www.aviationweather.gov/adds/metars/
 
KUNV 032353Z 24004KT 10SM SKC 21/04 A3009
KUNV 032253Z 20003KT 10SM SCT110 21/05 A3008
KUNV 032153Z 20004KT 10SM BKN110 24/04 A3008
KUNV 032053Z 27008KT 10SM SCT095 BKN110 24/05 A3008
KUNV 031953Z 00000KT 10SM BKN090 23/03 A3009
KUNV 031853Z 00000KT 10SM BKN090 24/06 A3010
KUNV 031753Z 00000KT 10SM BKN090 23/03 A3010
KUNV 031653Z 26008KT 10SM BKN090 22/04 A3011
KUNV 031553Z 23006KT 10SM SCT080 22/04 A3012
KUNV 031453Z 00000KT 10SM SKC 21/04 A3012
KUNV 031353Z 00000KT 10SM SKC 18/04 A3013
KUNV 031253Z 00000KT 10SM SKC 15/03 A3013
KUNV 031153Z 00000KT 10SM SKC 11/02 A3013
KUNV 031053Z 20005KT 10SM SKC 09/01 A3010
KUNV 030953Z 00000KT 10SM SKC 09/00 A3007
KUNV 030935Z AUTO 00000KT 10SM CLR 09/00 A3007 RMK AO2 T00891002
KUNV 030915Z AUTO 00000KT 10SM CLR 09/00 A3007 RMK AO2 T00860000
KUNV 030855Z AUTO 00000KT 10SM CLR 09/00 A3006 RMK AO2 T00880000
KUNV 030835Z AUTO 00000KT 10SM CLR 08/M01 A3006 RMK AO2 T00821008
KUNV 030815Z AUTO 00000KT 10SM CLR 10/M01 A3006 RMK AO2 T00961015
KUNV 030755Z AUTO 00000KT 10SM CLR 10/M01 A3005 RMK AO2 T01041012
KUNV 030735Z AUTO 00000KT 10SM CLR 12/M01 A3005 RMK AO2 T01211015
KUNV 030715Z AUTO 00000KT 10SM CLR 12/M01 A3005 RMK AO2 T01181008
KUNV 030655Z AUTO 28003KT 10SM CLR 13/M01 A3005 RMK AO2 T01261014
KUNV 030635Z AUTO 00000KT 10SM CLR 13/M02 A3005 RMK AO2 T01301018
KUNV 030615Z AUTO 00000KT 10SM CLR 14/M02 A3005 RMK AO2 LTG DSNT W T01411018
KUNV 030555Z AUTO 00000KT 10SM CLR 14/M02 A3005 RMK AO2 T01351019 10201 20135
KUNV 030535Z AUTO 00000KT 10SM CLR 15/M02 A3006 RMK AO2 T01471020
KUNV 030515Z AUTO 00000KT 10SM SCT100 15/M02 A3006 RMK AO2 LTG DSNT W T01541022
KUNV 030455Z AUTO 00000KT 10SM BKN100 15/M02 A3006 RMK AO2 T01521019
KUNV 030435Z AUTO 00000KT 10SM BKN100 15/M01 A3006 RMK AO2 T01511015
KUNV 030415Z AUTO 03006KT 10SM SCT100 16/M02 A3005 RMK AO2 T01601019
KUNV 030355Z AUTO 03006KT 10SM SCT100 16/M02 A3005 RMK AO2 T01581019 402310058
KUNV 030335Z AUTO 36005KT 10SM CLR 17/M02 A3004 RMK AO2 T01701025
KUNV 030315Z AUTO 34009G16KT 10SM CLR 18/M03 A3003 RMK AO2 T01801030
KUNV 030255Z AUTO 33009KT 10SM CLR 18/M03 A3003 RMK AO2 T01781030
KUNV 030235Z AUTO 33008KT 10SM CLR 18/M03 A3002 RMK AO2 T01831031
KUNV 030215Z AUTO 33011G19KT 10SM CLR 19/M03 A3001 RMK AO2 T01881031
KUNV 030053Z 27006KT 10SM BKN110 191 A2998
KUNV 022353Z 28005KT 10SM SKC 20/01 A2996
KUNV 022253Z 30005KT 10SM SCT095 22/01 A2996
KUNV 022153Z 29007KT 10SM BKN095 22/01 A2996
KUNV 022053Z 26006KT 10SM SCT090 22/01 A2996
KUNV 021953Z 30007KT 10SM BKN090 21/02 A2998
KUNV 021853Z 31005KT 10SM BKN090 21/02 A2999
KUNV 021753Z 31005KT 10SM BKN090 21/02 A3000
KUNV 021653Z 30010KT 10SM BKN090 20/01 A3001
KUNV 021553Z 00000KT 10SM SCT070 20/05 A3002
KUNV 021453Z 32006KT 10SM FEW050 19/05 A3004
KUNV 021353Z 00000KT 10SM SKC 16/07 A3004
KUNV 021253Z 00000KT 10SM SKC 13/06 A3005